Time;durP1;ratioP1;P1;durP2;ratioP2;P2;SDS_P1;SDS_P2;PMS_P1;PMS_P2;Temp;Humidity;BMP_temperature;BMP_pressure;BME280_temperature;BME280_humidity;BME280_pressure;Samples;Min_cycle;Max_cycle;Signal;HPM_P1;HPM_P2
2023/01/24 00:01:08;;;;;;;17.73;12.00;;;;;;;1.65;100.00;103977.41;5003282;28;20715;-48
2023/01/24 00:03:34;;;;;;;17.10;12.15;;;;;;;1.68;100.00;103971.34;5002532;28;20268;-47
2023/01/24 00:05:59;;;;;;;17.92;11.48;;;;;;;1.67;100.00;103971.28;5000686;28;20267;-47
2023/01/24 00:08:25;;;;;;;15.40;11.25;;;;;;;1.63;100.00;103964.94;5006814;28;20181;-47
2023/01/24 00:11:05;;;;;;;18.42;11.73;;;;;;;1.64;100.00;103962.38;5001729;28;20191;-48
2023/01/24 00:13:31;;;;;;;17.42;11.05;;;;;;;1.63;100.00;103963.19;5002060;28;20192;-47
2023/01/24 00:16:13;;;;;;;15.40;12.00;;;;;;;1.62;100.00;103966.69;5000296;28;20207;-47
2023/01/24 00:18:38;;;;;;;21.10;12.63;;;;;;;1.53;100.00;103963.59;4998619;28;20209;-47
2023/01/24 00:21:14;;;;;;;21.40;13.43;;;;;;;1.59;100.00;103969.16;4999323;28;20651;-47
2023/01/24 00:23:46;;;;;;;21.40;12.65;;;;;;;1.67;100.00;103966.91;5010392;28;20663;-47
2023/01/24 00:26:12;;;;;;;20.75;12.70;;;;;;;1.67;100.00;103968.66;4999775;28;20296;-45
2023/01/24 00:28:40;;;;;;;23.40;14.07;;;;;;;1.62;100.00;103957.84;4999480;28;20327;-46
2023/01/24 00:31:05;;;;;;;20.15;11.65;;;;;;;1.71;100.00;103970.63;4986638;28;20260;-46
2023/01/24 00:33:32;;;;;;;16.95;13.07;;;;;;;1.65;100.00;103972.09;4998884;28;20366;-47
2023/01/24 00:35:58;;;;;;;18.67;12.88;;;;;;;1.65;100.00;103953.59;4998528;28;20288;-45
2023/01/24 00:38:24;;;;;;;20.92;13.82;;;;;;;1.57;100.00;103941.75;4996365;28;20371;-47
2023/01/24 00:40:49;;;;;;;20.25;13.20;;;;;;;1.61;100.00;103948.09;5000151;28;20185;-47
2023/01/24 00:43:15;;;;;;;20.23;12.48;;;;;;;1.62;100.00;103950.81;4980181;28;20275;-48
2023/01/24 00:45:41;;;;;;;20.90;12.48;;;;;;;1.65;100.00;103952.72;4999641;28;20188;-46
2023/01/24 00:48:08;;;;;;;20.13;12.32;;;;;;;1.64;100.00;103950.91;5005205;28;20587;-46
2023/01/24 00:50:34;;;;;;;16.77;12.07;;;;;;;1.58;100.00;103946.22;4995574;28;20189;-49
2023/01/24 00:53:00;;;;;;;19.38;13.38;;;;;;;1.63;100.00;103960.56;5000781;28;20614;-46
2023/01/24 00:55:27;;;;;;;20.10;12.70;;;;;;;1.65;100.00;103955.34;5000095;28;20668;-47
2023/01/24 00:57:53;;;;;;;26.20;14.40;;;;;;;1.55;100.00;103961.94;4996238;28;20212;-46
2023/01/24 01:00:20;;;;;;;18.38;13.27;;;;;;;1.58;100.00;103963.81;4997718;28;20206;-45
2023/01/24 01:02:46;;;;;;;15.23;11.02;;;;;;;1.43;100.00;103963.97;4998701;28;20634;-48
2023/01/24 01:05:11;;;;;;;18.15;11.80;;;;;;;1.43;100.00;103962.22;5008664;28;20284;-47
2023/01/24 01:07:37;;;;;;;15.80;10.43;;;;;;;1.53;100.00;103953.03;4997010;28;20197;-46
2023/01/24 01:10:03;;;;;;;17.33;11.38;;;;;;;1.48;100.00;103949.22;5006411;28;20191;-46
2023/01/24 01:12:29;;;;;;;15.23;9.13;;;;;;;1.44;100.00;103944.63;4990369;28;20185;-47
2023/01/24 01:14:54;;;;;;;16.92;10.15;;;;;;;1.42;100.00;103959.47;5012485;28;20178;-48
2023/01/24 01:17:20;;;;;;;15.40;9.20;;;;;;;1.49;100.00;103945.78;5001896;28;20645;-48
2023/01/24 01:19:46;;;;;;;14.48;9.68;;;;;;;1.48;100.00;103946.59;4997981;28;20181;-47
2023/01/24 01:22:11;;;;;;;16.05;10.30;;;;;;;1.50;100.00;103944.94;4998769;28;20188;-48
2023/01/24 01:24:37;;;;;;;15.15;10.57;;;;;;;1.47;100.00;103949.19;4997139;28;20211;-48
2023/01/24 01:27:03;;;;;;;11.30;7.15;;;;;;;1.29;100.00;103943.84;4999071;28;20193;-48
2023/01/24 01:29:28;;;;;;;9.00;6.30;;;;;;;1.32;100.00;103947.56;4998460;28;20686;-48
2023/01/24 01:31:54;;;;;;;8.20;6.50;;;;;;;1.40;100.00;103947.94;4995210;28;20223;-46
2023/01/24 01:34:19;;;;;;;7.57;6.03;;;;;;;1.40;100.00;103940.94;4999909;28;20193;-46
2023/01/24 01:36:45;;;;;;;7.13;5.63;;;;;;;1.43;100.00;103937.53;4994497;28;20229;-48
2023/01/24 01:39:10;;;;;;;7.80;5.97;;;;;;;1.44;100.00;103929.69;5001723;28;20286;-46
2023/01/24 01:41:37;;;;;;;8.93;6.18;;;;;;;1.46;100.00;103936.78;5001844;28;20173;-46
2023/01/24 01:44:38;;;;;;;6.85;5.60;;;;;;;1.51;100.00;103930.91;4979702;28;20204;-48
2023/01/24 01:47:08;;;;;;;5.80;5.20;;;;;;;1.61;100.00;103930.50;5017544;28;20215;-47
2023/01/24 01:49:34;;;;;;;8.20;5.65;;;;;;;1.64;100.00;103933.31;5004314;28;20193;-46
2023/01/24 01:52:03;;;;;;;5.68;4.57;;;;;;;1.68;100.00;103922.88;5001396;28;20212;-48
2023/01/24 01:54:39;;;;;;;5.90;4.93;;;;;;;1.71;100.00;103931.88;4997614;28;20715;-48
2023/01/24 01:57:12;;;;;;;8.05;5.80;;;;;;;1.64;100.00;103933.31;4984530;28;20294;-47
2023/01/24 02:00:12;;;;;;;8.45;6.30;;;;;;;1.48;100.00;103933.38;5004675;28;20212;-47
2023/01/24 02:02:40;;;;;;;7.20;5.60;;;;;;;1.56;100.00;103934.66;4997343;28;20202;-46
2023/01/24 02:05:09;;;;;;;9.77;6.28;;;;;;;1.59;100.00;103937.44;5000698;28;20633;-48
2023/01/24 02:07:44;;;;;;;9.85;6.60;;;;;;;1.52;100.00;103930.06;5005197;28;20488;-47
2023/01/24 02:10:11;;;;;;;9.60;6.60;;;;;;;1.52;100.00;103932.69;4997577;28;20198;-46
2023/01/24 02:12:43;;;;;;;9.15;6.88;;;;;;;1.45;100.00;103927.94;5004741;28;20180;-48
2023/01/24 02:18:00;;;;;;;9.27;7.05;;;;;;;1.41;100.00;103932.16;5006974;28;20507;-47
2023/01/24 02:20:38;;;;;;;7.45;6.40;;;;;;;1.48;100.00;103921.91;5003348;28;20188;-47
2023/01/24 02:23:31;;;;;;;8.77;6.40;;;;;;;1.51;100.00;103925.63;4994794;28;20181;-47
2023/01/24 02:25:59;;;;;;;8.32;6.28;;;;;;;1.46;100.00;103927.09;5006865;28;20212;-47
2023/01/24 02:28:26;;;;;;;8.57;6.43;;;;;;;1.39;100.00;103927.66;5003320;28;20555;-47
2023/01/24 02:30:56;;;;;;;8.85;6.63;;;;;;;1.35;100.00;103920.38;4999264;28;20613;-47
2023/01/24 02:33:21;;;;;;;8.18;6.30;;;;;;;1.42;100.00;103934.00;5003725;28;20187;-49
2023/01/24 02:35:47;;;;;;;8.10;6.68;;;;;;;1.48;100.00;103935.13;5004849;28;20185;-48
2023/01/24 02:38:33;;;;;;;11.10;6.82;;;;;;;1.41;100.00;103937.44;5000447;28;20205;-46
2023/01/24 02:41:06;;;;;;;8.52;6.50;;;;;;;1.37;100.00;103929.31;5003151;28;20443;-47
2023/01/24 02:43:39;;;;;;;9.98;7.07;;;;;;;1.41;100.00;103936.56;5008935;28;20189;-50
2023/01/24 02:46:04;;;;;;;8.50;6.40;;;;;;;1.50;100.00;103933.47;5004016;28;20201;-43
2023/01/24 02:48:30;;;;;;;8.73;5.75;;;;;;;1.55;100.00;103934.59;5015215;28;20198;-47
2023/01/24 02:53:39;;;;;;;10.13;7.43;;;;;;;1.45;100.00;103930.59;5006196;28;20637;-47
2023/01/24 02:58:52;;;;;;;7.72;6.00;;;;;;;1.59;100.00;103934.81;5012418;28;20217;-47
2023/01/24 03:01:18;;;;;;;7.88;6.20;;;;;;;1.58;100.00;103926.81;5000635;28;20189;-45
2023/01/24 03:03:49;;;;;;;8.90;6.20;;;;;;;1.58;100.00;103938.28;5000784;28;20180;-45
2023/01/24 03:06:16;;;;;;;9.48;6.80;;;;;;;1.48;100.00;103930.72;5003702;28;20300;-46
2023/01/24 03:08:42;;;;;;;8.95;6.75;;;;;;;1.48;100.00;103936.00;5009571;28;20629;-49
2023/01/24 03:11:16;;;;;;;9.63;7.18;;;;;;;1.51;100.00;103938.81;5012523;28;20554;-48
2023/01/24 03:35:58;;;;;;;9.85;7.00;;;;;;;1.31;100.00;103919.34;4999920;28;20296;-47
2023/01/24 03:41:12;;;;;;;9.15;7.20;;;;;;;1.35;100.00;103931.84;5008947;28;20177;-47
2023/01/24 03:43:40;;;;;;;9.80;6.97;;;;;;;1.40;100.00;103934.72;4999446;28;20624;-44
2023/01/24 03:46:06;;;;;;;9.25;6.28;;;;;;;1.46;100.00;103929.75;5001872;28;20215;-47
2023/01/24 03:48:42;;;;;;;8.00;6.30;;;;;;;1.48;100.00;103940.41;5000650;28;20187;-46
2023/01/24 03:53:53;;;;;;;8.82;7.38;;;;;;;1.49;100.00;103940.50;5000338;28;20173;-44
2023/01/24 03:56:22;;;;;;;8.88;6.88;;;;;;;1.53;100.00;103949.44;5000250;28;20264;-45
2023/01/24 03:58:54;;;;;;;8.55;6.78;;;;;;;1.55;100.00;103946.09;5007331;28;20710;-46
2023/01/24 04:01:21;;;;;;;9.50;6.80;;;;;;;1.54;100.00;103943.34;5003370;28;20217;-44
2023/01/24 04:03:57;;;;;;;9.07;6.53;;;;;;;1.48;100.00;103948.31;4996202;28;20216;-46
2023/01/24 04:06:23;;;;;;;10.40;7.38;;;;;;;1.52;100.00;103955.59;5002625;28;20223;-45
2023/01/24 04:08:50;;;;;;;8.57;6.38;;;;;;;1.52;100.00;103950.28;4999800;28;20946;-45
2023/01/24 04:11:17;;;;;;;10.63;7.90;;;;;;;1.49;100.00;103948.41;4991371;28;20212;-47
2023/01/24 04:13:42;;;;;;;10.45;6.53;;;;;;;1.55;100.00;103948.72;5002115;28;20223;-45
2023/01/24 04:16:08;;;;;;;9.80;7.53;;;;;;;1.49;100.00;103950.13;4999676;28;20725;-45
2023/01/24 04:18:49;;;;;;;11.45;7.13;;;;;;;1.51;100.00;103948.47;5000053;28;20216;-44
2023/01/24 04:21:14;;;;;;;9.05;7.10;;;;;;;1.44;100.00;103950.84;5005142;28;20263;-44
2023/01/24 04:23:40;;;;;;;9.10;7.18;;;;;;;1.33;100.00;103940.53;5001716;28;20189;-44
2023/01/24 04:26:06;;;;;;;10.57;7.10;;;;;;;1.34;100.00;103952.94;5002622;28;20288;-46
2023/01/24 04:28:32;;;;;;;8.30;6.68;;;;;;;1.26;100.00;103947.25;5000089;28;20530;-45
2023/01/24 04:31:02;;;;;;;7.35;6.60;;;;;;;1.25;100.00;103956.03;4997923;28;20188;-47
2023/01/24 04:34:06;;;;;;;14.48;6.82;;;;;;;1.36;100.00;103959.19;4984847;28;20173;-47
2023/01/24 04:36:33;;;;;;;9.05;6.32;;;;;;;1.36;100.00;103961.84;4959254;28;20276;-45
2023/01/24 04:39:00;;;;;;;8.93;7.10;;;;;;;1.35;100.00;103958.28;4987104;28;20224;-44
2023/01/24 04:41:38;;;;;;;11.23;6.88;;;;;;;1.28;100.00;103955.25;5001246;28;20216;-44
2023/01/24 04:44:04;;;;;;;11.73;6.75;;;;;;;1.31;100.00;103956.34;4992001;28;20536;-45
2023/01/24 04:46:30;;;;;;;8.45;6.65;;;;;;;1.40;100.00;103947.94;5006786;28;20243;-45
2023/01/24 04:48:56;;;;;;;8.95;6.78;;;;;;;1.35;100.00;103952.09;4998481;28;20269;-48
2023/01/24 04:51:30;;;;;;;9.43;7.40;;;;;;;1.36;100.00;103951.28;4996437;28;20172;-45
2023/01/24 04:53:57;;;;;;;8.48;6.65;;;;;;;1.44;100.00;103963.09;5001131;28;20189;-47
2023/01/24 04:56:26;;;;;;;9.73;6.85;;;;;;;1.35;100.00;103952.09;4996685;28;20575;-47
2023/01/24 04:58:54;;;;;;;8.95;6.80;;;;;;;1.36;100.00;103961.84;5001600;28;20267;-47
2023/01/24 05:01:20;;;;;;;9.10;6.38;;;;;;;1.39;100.00;103959.34;5001965;28;20181;-47
2023/01/24 05:03:58;;;;;;;9.35;7.05;;;;;;;1.43;100.00;103954.28;5007140;28;20189;-47
2023/01/24 05:06:29;;;;;;;9.65;6.50;;;;;;;1.44;100.00;103963.09;5002450;28;20213;-45
2023/01/24 05:08:56;;;;;;;6.35;5.63;;;;;;;1.48;100.00;103957.16;4996180;28;20192;-47
2023/01/24 05:11:27;;;;;;;8.55;5.90;;;;;;;1.51;100.00;103954.69;5004975;28;20585;-46
2023/01/24 05:13:56;;;;;;;7.60;6.80;;;;;;;1.47;100.00;103968.56;4983038;28;20284;-47
2023/01/24 05:16:22;;;;;;;8.35;6.40;;;;;;;1.45;100.00;103970.22;4999811;28;20308;-46
2023/01/24 05:18:48;;;;;;;8.48;7.15;;;;;;;1.42;100.00;103964.78;4996444;28;20219;-45
2023/01/24 05:21:16;;;;;;;9.63;7.32;;;;;;;1.43;100.00;103969.25;5000843;28;20648;-46
2023/01/24 05:23:43;;;;;;;9.00;6.80;;;;;;;1.47;100.00;103983.53;4994665;28;20270;-47
2023/01/24 05:26:09;;;;;;;6.63;5.70;;;;;;;1.49;100.00;103974.84;5000484;28;20760;-45
2023/01/24 05:28:35;;;;;;;8.77;6.68;;;;;;;1.52;100.00;103974.97;5006106;28;20302;-48
2023/01/24 05:31:04;;;;;;;12.55;8.10;;;;;;;1.32;100.00;103973.97;5012468;28;20185;-48
2023/01/24 05:33:34;;;;;;;10.32;8.30;;;;;;;1.24;100.00;103980.59;4990356;28;20187;-47
2023/01/24 05:36:02;;;;;;;11.35;8.18;;;;;;;1.19;100.00;103968.91;4996157;28;20374;-46
2023/01/24 05:38:32;;;;;;;12.95;9.07;;;;;;;1.06;100.00;103972.66;5000491;28;20225;-47
2023/01/24 05:41:03;;;;;;;12.40;8.60;;;;;;;1.11;100.00;103973.78;5016251;28;20651;-47
2023/01/24 05:43:29;;;;;;;13.20;8.88;;;;;;;1.13;100.00;103958.91;5012278;28;20193;-47
2023/01/24 05:46:18;;;;;;;12.98;9.20;;;;;;;1.13;100.00;103964.19;5003644;28;20235;-45
2023/01/24 05:48:54;;;;;;;9.07;7.22;;;;;;;1.21;100.00;103968.16;5006382;28;20271;-47
2023/01/24 05:51:21;;;;;;;10.45;8.15;;;;;;;1.23;100.00;103968.25;4998856;28;20177;-45
2023/01/24 05:53:48;;;;;;;10.07;7.80;;;;;;;1.31;100.00;103955.41;4999854;28;20216;-46
2023/01/24 05:56:23;;;;;;;10.18;7.25;;;;;;;1.38;100.00;103962.81;5001323;28;20275;-47
2023/01/24 05:58:49;;;;;;;10.90;8.25;;;;;;;1.40;100.00;103971.72;5004603;28;20716;-47
2023/01/24 06:01:20;;;;;;;9.85;7.55;;;;;;;1.40;100.00;103971.72;5009982;28;20596;-47
2023/01/24 06:03:48;;;;;;;10.75;7.80;;;;;;;1.39;100.00;103977.84;5008511;28;20203;-46
2023/01/24 06:06:16;;;;;;;9.32;7.40;;;;;;;1.35;100.00;103958.28;5004336;28;20234;-48
2023/01/24 06:08:42;;;;;;;8.40;6.82;;;;;;;1.39;100.00;103964.63;4999636;28;20189;-47
2023/01/24 06:11:14;;;;;;;9.07;6.40;;;;;;;1.43;100.00;103972.78;4996350;28;20189;-45
2023/01/24 06:13:40;;;;;;;9.30;6.97;;;;;;;1.46;100.00;103964.09;4982319;28;20185;-47
2023/01/24 06:16:11;;;;;;;9.07;6.53;;;;;;;1.43;100.00;103951.66;4999746;28;20578;-47
2023/01/24 06:18:38;;;;;;;8.40;6.22;;;;;;;1.46;100.00;103977.31;5007816;28;20193;-45
2023/01/24 06:21:13;;;;;;;9.25;7.20;;;;;;;1.42;100.00;103968.34;5013052;28;20177;-46
2023/01/24 06:23:38;;;;;;;11.90;7.10;;;;;;;1.42;100.00;103970.06;4999626;28;20189;-46
2023/01/24 06:26:09;;;;;;;10.25;8.00;;;;;;;1.33;100.00;103975.78;4991038;28;20209;-47
2023/01/24 06:28:34;;;;;;;11.48;7.65;;;;;;;1.30;100.00;103967.72;5004780;28;20275;-44
2023/01/24 06:31:05;;;;;;;9.07;7.63;;;;;;;1.33;100.00;103975.78;5006063;28;20264;-46
2023/01/24 06:33:36;;;;;;;10.15;8.02;;;;;;;1.31;100.00;103976.53;5003911;28;20555;-45
2023/01/24 06:36:20;;;;;;;9.30;7.45;;;;;;;1.37;100.00;103966.28;5002769;28;20696;-50
2023/01/24 06:38:46;;;;;;;9.35;7.05;;;;;;;1.41;100.00;103981.47;5006793;28;20188;-48
2023/01/24 06:41:16;;;;;;;9.98;7.00;;;;;;;1.38;100.00;103979.56;5004924;28;20244;-49
2023/01/24 06:43:45;;;;;;;11.15;8.55;;;;;;;1.28;100.00;103976.38;5005112;28;20173;-44
2023/01/24 06:46:12;;;;;;;9.90;7.80;;;;;;;1.35;100.00;103991.72;4997988;28;20213;-45
2023/01/24 06:48:38;;;;;;;11.02;8.13;;;;;;;1.32;100.00;103995.13;5000116;28;20189;-47
2023/01/24 06:51:05;;;;;;;13.82;9.85;;;;;;;1.29;100.00;103991.41;5006174;28;20173;-44
2023/01/24 06:53:33;;;;;;;10.80;8.60;;;;;;;1.31;100.00;103997.66;5000193;28;20252;-44
2023/01/24 06:55:59;;;;;;;11.00;8.80;;;;;;;1.24;100.00;104001.72;4998408;28;20205;-49
2023/01/24 06:58:24;;;;;;;13.00;8.63;;;;;;;1.36;100.00;104004.09;5007191;28;20299;-49
2023/01/24 07:00:52;;;;;;;9.38;8.05;;;;;;;1.43;100.00;103998.31;5001896;28;20276;-43
2023/01/24 07:03:18;;;;;;;13.15;8.75;;;;;;;1.44;100.00;104008.03;5000994;28;20192;-44
2023/01/24 07:05:43;;;;;;;9.20;7.78;;;;;;;1.43;100.00;104015.06;5000610;28;20176;-46
2023/01/24 07:08:09;;;;;;;11.80;9.13;;;;;;;1.34;100.00;104014.59;4998818;28;20324;-49
2023/01/24 07:10:34;;;;;;;12.20;9.10;;;;;;;1.26;100.00;104008.00;4999269;28;20207;-46
2023/01/24 07:13:00;;;;;;;14.05;9.93;;;;;;;1.26;100.00;104020.31;5005559;28;20227;-45
2023/01/24 07:15:25;;;;;;;12.43;9.80;;;;;;;1.15;100.00;104010.09;5001937;28;20615;-46
2023/01/24 07:17:51;;;;;;;11.85;9.43;;;;;;;1.26;100.00;104009.75;5005769;28;20272;-46
2023/01/24 07:20:17;;;;;;;12.13;10.07;;;;;;;1.28;100.00;104014.28;4998966;28;20186;-47
2023/01/24 07:22:43;;;;;;;13.18;10.32;;;;;;;1.31;100.00;104013.50;5007944;28;20546;-43
2023/01/24 07:25:14;;;;;;;11.13;8.63;;;;;;;1.23;100.00;104010.50;5002709;28;20200;-44
2023/01/24 07:27:44;;;;;;;12.30;9.55;;;;;;;1.09;100.00;104014.13;5000027;28;20663;-47
2023/01/24 07:30:12;;;;;;;10.90;8.90;;;;;;;1.21;100.00;104013.03;5000869;28;20173;-46
2023/01/24 07:32:38;;;;;;;12.10;9.65;;;;;;;1.27;100.00;104027.38;4998857;28;20188;-45
2023/01/24 07:35:04;;;;;;;13.48;10.27;;;;;;;1.30;100.00;104028.47;4996525;28;20177;-46
2023/01/24 07:37:30;;;;;;;15.02;11.02;;;;;;;1.28;100.00;104013.38;5005331;28;20236;-43
2023/01/24 07:39:55;;;;;;;15.25;10.13;;;;;;;1.32;100.00;104012.69;5007083;28;20209;-46
2023/01/24 07:42:21;;;;;;;13.75;9.45;;;;;;;1.37;100.00;104016.47;5001195;28;20208;-44
2023/01/24 07:44:46;;;;;;;12.23;9.77;;;;;;;1.38;100.00;104015.66;5005164;28;20185;-46
2023/01/24 07:47:12;;;;;;;14.10;10.15;;;;;;;1.40;100.00;104008.69;5000297;28;20204;-44
2023/01/24 07:49:37;;;;;;;12.70;9.70;;;;;;;1.42;100.00;103996.47;4992053;28;20730;-46
2023/01/24 07:52:03;;;;;;;14.30;9.93;;;;;;;1.31;100.00;104009.16;5007536;28;20185;-49
2023/01/24 07:54:28;;;;;;;14.05;10.98;;;;;;;1.26;100.00;103999.19;4998686;28;20640;-44
2023/01/24 07:56:54;;;;;;;14.40;10.23;;;;;;;1.28;100.00;104008.09;5009773;28;20229;-44
2023/01/24 07:59:19;;;;;;;11.45;9.48;;;;;;;1.35;100.00;104003.19;5001977;28;20209;-47
2023/01/24 08:01:45;;;;;;;12.52;8.27;;;;;;;1.41;100.00;104006.13;4997486;28;20193;-49
2023/01/24 08:04:10;;;;;;;12.00;9.10;;;;;;;1.43;100.00;104003.59;5001754;28;20310;-47
2023/01/24 08:06:36;;;;;;;10.85;8.75;;;;;;;1.43;100.00;104009.75;5005232;28;20193;-44
2023/01/24 08:09:01;;;;;;;12.50;9.13;;;;;;;1.43;100.00;104012.41;4999328;28;20173;-47
2023/01/24 08:11:27;;;;;;;11.90;8.77;;;;;;;1.47;100.00;104005.56;4998574;28;20177;-44
2023/01/24 08:13:54;;;;;;;10.88;8.52;;;;;;;1.50;100.00;104016.28;4997824;28;20196;-44
2023/01/24 08:16:23;;;;;;;13.20;9.85;;;;;;;1.47;100.00;104018.78;5002740;28;20581;-47
2023/01/24 08:18:49;;;;;;;12.23;8.88;;;;;;;1.55;100.00;104017.44;4998980;28;20339;-43
2023/01/24 08:21:14;;;;;;;12.65;9.52;;;;;;;1.52;100.00;104013.72;5002537;28;20647;-43
2023/01/24 08:23:40;;;;;;;13.40;8.73;;;;;;;1.56;100.00;104011.31;4997214;28;20188;-45
2023/01/24 08:26:06;;;;;;;11.25;8.90;;;;;;;1.60;100.00;104031.78;4999218;28;20350;-43
2023/01/24 08:28:32;;;;;;;10.10;8.93;;;;;;;1.53;100.00;104019.09;5003895;28;20226;-43
2023/01/24 08:30:59;;;;;;;14.27;10.40;;;;;;;1.49;100.00;104032.97;4997681;28;20185;-51
2023/01/24 08:33:25;;;;;;;13.00;10.23;;;;;;;1.48;100.00;104022.31;4999884;28;20668;-45
2023/01/24 08:35:51;;;;;;;15.52;10.05;;;;;;;1.37;100.00;104017.38;4997697;28;20168;-44
2023/01/24 08:38:17;;;;;;;14.18;9.68;;;;;;;1.46;100.00;104016.94;4995604;28;20208;-48
2023/01/24 08:40:42;;;;;;;13.40;9.90;;;;;;;1.50;100.00;104018.91;4997032;28;20715;-46
2023/01/24 08:43:08;;;;;;;12.88;9.90;;;;;;;1.48;100.00;104028.50;5000501;28;20664;-45
2023/01/24 08:45:34;;;;;;;12.30;9.70;;;;;;;1.48;100.00;104017.91;5002404;28;20212;-46
2023/01/24 08:48:00;;;;;;;12.20;9.63;;;;;;;1.58;100.00;104022.84;5004067;28;20193;-43
2023/01/24 08:50:25;;;;;;;14.18;10.68;;;;;;;1.61;100.00;104020.34;5000755;28;20711;-45
2023/01/24 08:52:55;;;;;;;13.13;9.57;;;;;;;1.49;100.00;104024.09;4999029;28;20181;-49
2023/01/24 08:55:21;;;;;;;11.85;9.93;;;;;;;1.53;100.00;104032.28;4999106;28;20331;-43
2023/01/24 08:57:46;;;;;;;19.05;11.50;;;;;;;1.53;100.00;104031.38;5001187;28;20362;-46
2023/01/24 09:00:13;;;;;;;11.07;9.52;;;;;;;1.47;99.74;104023.16;5002082;28;20196;-43
2023/01/24 09:02:38;;;;;;;16.15;9.93;;;;;;;1.50;99.71;104026.84;5004122;28;20594;-45
2023/01/24 09:05:08;;;;;;;11.82;9.52;;;;;;;1.58;99.75;104030.78;5001037;28;20192;-46
2023/01/24 09:07:36;;;;;;;13.80;10.32;;;;;;;1.64;99.42;104038.13;5000182;28;20201;-43
2023/01/24 09:10:05;;;;;;;13.27;9.10;;;;;;;1.69;99.25;104033.97;5001789;28;20248;-44
2023/01/24 09:12:31;;;;;;;13.05;9.82;;;;;;;1.75;98.66;104028.06;5000324;28;20651;-43
2023/01/24 09:14:58;;;;;;;11.38;9.63;;;;;;;1.56;98.55;104039.47;4998730;28;20178;-43
2023/01/24 09:17:25;;;;;;;14.70;10.13;;;;;;;1.52;98.73;104037.50;4997206;28;20209;-43
2023/01/24 09:19:50;;;;;;;14.73;10.60;;;;;;;1.57;98.71;104038.63;5001620;28;20215;-43
2023/01/24 09:22:16;;;;;;;11.60;9.45;;;;;;;1.63;98.39;104038.94;5002514;28;20196;-42
2023/01/24 09:24:42;;;;;;;15.45;10.40;;;;;;;1.53;98.35;104027.00;5009258;28;20176;-42
2023/01/24 09:27:10;;;;;;;13.27;9.80;;;;;;;1.52;98.18;104032.22;4997328;28;20208;-42
2023/01/24 09:29:36;;;;;;;12.68;9.60;;;;;;;1.51;98.08;104030.38;4999995;28;20273;-43
2023/01/24 09:32:01;;;;;;;12.65;10.25;;;;;;;1.61;98.08;104030.03;4998675;28;20276;-45
2023/01/24 09:34:27;;;;;;;13.02;9.98;;;;;;;1.61;97.74;104024.75;4998824;28;20181;-41
2023/01/24 09:36:53;;;;;;;13.63;9.90;;;;;;;1.71;97.91;104028.78;5004182;28;20209;-43
2023/01/24 09:39:18;;;;;;;12.52;9.98;;;;;;;1.60;97.51;104026.47;5002468;28;20304;-43
2023/01/24 09:42:06;;;;;;;12.00;9.98;;;;;;;1.60;97.28;104034.41;5006366;28;20192;-43
2023/01/24 09:44:44;;;;;;;14.55;10.60;;;;;;;1.59;96.97;104034.31;5014825;28;20221;-43
2023/01/24 09:47:30;;;;;;;13.30;9.85;;;;;;;1.47;96.68;104031.97;5004967;28;20269;-43
2023/01/24 09:50:02;;;;;;;14.48;10.27;;;;;;;1.57;95.97;104038.63;5000961;28;20174;-42
2023/01/24 09:52:36;;;;;;;13.10;10.68;;;;;;;1.49;96.06;104046.19;5008532;28;20184;-42
2023/01/24 09:55:11;;;;;;;12.20;9.70;;;;;;;1.52;96.00;104046.31;5002728;28;20180;-41
2023/01/24 09:57:50;;;;;;;12.13;10.40;;;;;;;1.58;95.76;104062.50;5009613;28;20240;-43
2023/01/24 10:00:35;;;;;;;11.88;9.90;;;;;;;1.45;95.45;104049.50;5006607;28;20625;-43
2023/01/24 10:03:01;;;;;;;14.18;10.05;;;;;;;1.40;95.35;104051.91;4998879;28;20200;-48
2023/01/24 10:05:38;;;;;;;13.23;9.68;;;;;;;1.30;95.09;104054.88;5003399;28;20186;-46
2023/01/24 10:08:10;;;;;;;13.63;9.70;;;;;;;1.27;95.14;104040.59;4997909;28;20185;-46
2023/01/24 10:10:44;;;;;;;15.65;10.75;;;;;;;1.46;95.14;104037.19;4999004;28;20239;-46
2023/01/24 10:13:41;;;;;;;12.27;9.57;;;;;;;1.51;94.94;104043.59;5002481;28;20235;-47
2023/01/24 10:16:33;;;;;;;14.70;10.80;;;;;;;1.56;95.00;104037.72;4977298;28;20217;-46
2023/01/24 10:19:17;;;;;;;13.07;10.45;;;;;;;1.61;94.72;104030.94;5002169;28;20534;-48
2023/01/24 10:21:48;;;;;;;16.20;11.65;;;;;;;1.55;94.93;104035.94;4999701;28;20331;-47
2023/01/24 10:24:24;;;;;;;13.30;10.70;;;;;;;1.53;94.56;104034.00;5001565;28;20185;-47
2023/01/24 10:26:51;;;;;;;15.48;10.85;;;;;;;1.31;94.07;104030.28;5000919;28;20201;-45
2023/01/24 10:29:26;;;;;;;13.77;10.70;;;;;;;1.35;94.30;104026.06;5002474;28;20186;-46
2023/01/24 10:32:00;;;;;;;12.80;10.30;;;;;;;1.47;94.20;104024.06;5002675;28;20280;-49
2023/01/24 10:34:57;;;;;;;14.95;11.73;;;;;;;1.53;94.18;104018.16;5004483;28;20195;-49
2023/01/24 10:37:31;;;;;;;12.57;9.90;;;;;;;1.65;94.41;104011.75;4987784;28;20240;-48
2023/01/24 10:39:58;;;;;;;12.23;10.45;;;;;;;1.62;94.31;104011.63;5007383;28;20263;-47
2023/01/24 10:42:29;;;;;;;13.23;10.60;;;;;;;1.58;94.51;104012.28;4998278;28;20193;-48
2023/01/24 10:44:59;;;;;;;15.65;10.70;;;;;;;1.54;94.39;103991.81;4999319;28;20439;-49
2023/01/24 10:47:25;;;;;;;14.07;10.60;;;;;;;1.53;94.60;103997.94;5001164;28;20212;-48
2023/01/24 10:49:58;;;;;;;11.98;10.13;;;;;;;1.67;94.76;103990.69;4995750;28;20671;-47
2023/01/24 10:52:23;;;;;;;12.85;10.23;;;;;;;1.80;95.00;103994.84;5002898;28;20193;-48
2023/01/24 10:54:55;;;;;;;12.38;9.90;;;;;;;1.71;94.56;103997.94;4999925;28;20184;-48
2023/01/24 10:57:33;;;;;;;12.13;10.15;;;;;;;1.74;94.39;103999.84;5003377;28;20205;-47
2023/01/24 11:00:27;;;;;;;12.68;10.13;;;;;;;1.82;94.31;103996.72;5003716;28;20625;-47
2023/01/24 11:02:58;;;;;;;13.00;9.90;;;;;;;1.80;94.24;104000.13;4998482;28;20309;-46
2023/01/24 11:05:34;;;;;;;14.55;10.30;;;;;;;1.73;94.07;103998.00;5004411;28;20196;-45
2023/01/24 11:08:00;;;;;;;13.70;9.98;;;;;;;1.72;93.60;103996.22;4999696;28;20674;-46
2023/01/24 11:10:31;;;;;;;13.23;10.95;;;;;;;1.58;93.52;103982.31;4998366;28;20203;-48
2023/01/24 11:13:00;;;;;;;12.60;10.00;;;;;;;1.67;93.53;103981.88;5002178;28;20272;-47
2023/01/24 11:15:26;;;;;;;12.60;9.57;;;;;;;1.83;93.89;103972.09;5000279;28;20615;-48
2023/01/24 11:17:55;;;;;;;10.68;8.95;;;;;;;1.98;93.78;103976.31;4990968;28;20201;-48
2023/01/24 11:20:28;;;;;;;12.50;9.75;;;;;;;1.90;93.24;103985.63;5005632;28;20683;-46
2023/01/24 11:23:02;;;;;;;14.77;10.85;;;;;;;1.83;93.33;103972.09;4997986;28;20196;-49
2023/01/24 11:25:27;;;;;;;13.73;10.18;;;;;;;1.76;93.36;103963.81;5004815;28;20295;-48
2023/01/24 11:27:52;;;;;;;12.15;9.70;;;;;;;1.84;93.27;103971.28;4995946;28;20296;-47
2023/01/24 11:30:22;;;;;;;12.48;9.80;;;;;;;1.94;93.41;103958.50;5002493;28;20181;-47
2023/01/24 11:33:25;;;;;;;13.32;11.05;;;;;;;1.88;93.15;103966.13;5000965;28;20181;-47
2023/01/24 11:36:20;;;;;;;13.05;10.70;;;;;;;1.70;92.93;103958.22;5008908;28;20724;-48
2023/01/24 11:38:45;;;;;;;15.13;10.95;;;;;;;1.69;92.95;103967.00;5000344;28;20276;-46
2023/01/24 11:41:32;;;;;;;15.05;10.40;;;;;;;1.68;92.82;103951.94;5000927;28;20721;-48
2023/01/24 11:44:23;;;;;;;11.85;9.55;;;;;;;1.85;92.68;103945.75;4995470;28;20193;-47
2023/01/24 11:47:18;;;;;;;13.20;10.23;;;;;;;1.71;92.45;103942.44;5005904;28;20550;-48
2023/01/24 11:50:17;;;;;;;13.20;10.63;;;;;;;1.65;92.67;103943.03;4995418;28;20574;-46
2023/01/24 11:53:16;;;;;;;13.27;11.18;;;;;;;1.78;92.76;103943.66;5003099;28;20573;-47
2023/01/24 11:56:23;;;;;;;13.95;10.60;;;;;;;1.81;92.60;103927.91;4992174;28;20208;-47
2023/01/24 11:59:13;;;;;;;16.70;11.55;;;;;;;1.69;92.55;103943.22;5002086;28;20209;-47
2023/01/24 12:01:54;;;;;;;14.20;10.20;;;;;;;1.65;92.67;103935.09;4998677;28;20620;-45
2023/01/24 12:04:25;;;;;;;12.98;9.98;;;;;;;1.73;92.75;103942.50;5002921;28;20223;-44
2023/01/24 12:07:14;;;;;;;13.13;10.93;;;;;;;1.69;92.59;103940.56;4996392;28;20212;-45
2023/01/24 12:09:48;;;;;;;11.80;10.35;;;;;;;1.65;92.60;103942.13;4999886;28;20236;-44